createdAt,value
2017-07-11T16:29:48.755Z,70
2017-07-11T16:32:03.257Z,70
2017-07-11T16:32:13.500Z,70
2017-07-11T16:33:13.501Z,75
2017-07-11T16:34:13.157Z,75
2017-07-11T16:35:13.156Z,75
2017-07-11T16:36:12.516Z,75
2017-07-11T16:37:13.135Z,80
2017-07-11T16:38:13.128Z,80
2017-07-11T16:39:13.090Z,85
2017-07-11T16:40:12.780Z,85
2017-07-11T16:41:13.082Z,85
2017-07-11T16:42:13.388Z,85
2017-07-11T16:43:12.415Z,85
2017-07-11T16:44:13.344Z,85
2017-07-11T16:45:13.356Z,85
2017-07-11T16:46:13.339Z,85
2017-07-11T16:47:13.314Z,85
2017-07-11T16:48:13.002Z,85
2017-07-11T16:49:13.295Z,85
2017-07-11T16:50:12.964Z,85
2017-07-11T16:51:12.962Z,80
2017-07-11T16:52:12.614Z,80
2017-07-11T16:53:12.744Z,80
2017-07-11T16:54:12.652Z,80
2017-07-11T16:55:13.319Z,75
2017-07-11T16:56:12.580Z,75
2017-07-11T16:57:13.223Z,75
2017-07-11T16:58:13.224Z,75
2017-07-11T16:59:12.254Z,75
2017-07-11T17:00:12.934Z,75
2017-07-11T17:01:13.204Z,75
2017-07-11T17:02:13.206Z,70
2017-07-11T17:03:12.180Z,70
2017-07-11T17:04:12.926Z,70
2017-07-11T17:05:12.877Z,70
2017-07-11T17:06:12.817Z,65
2017-07-11T17:07:12.459Z,65
2017-07-11T17:08:12.854Z,65
2017-07-11T17:09:12.880Z,65
2017-07-11T17:10:13.061Z,65
2017-07-11T17:11:13.041Z,65
2017-07-11T17:12:12.755Z,65
2017-07-11T17:13:13.132Z,65
2017-07-11T17:14:12.692Z,60
2017-07-11T17:15:12.370Z,60
2017-07-11T17:16:12.996Z,60
2017-07-11T17:17:12.684Z,60
2017-07-11T17:18:12.654Z,60
2017-07-11T17:19:12.311Z,60
2017-07-11T17:20:12.626Z,55
2017-07-11T17:21:12.979Z,55
2017-07-11T17:22:12.937Z,55
2017-07-11T17:23:12.897Z,50
2017-07-11T17:24:12.905Z,50
2017-07-11T17:25:12.921Z,50
2017-07-11T17:26:12.249Z,50
2017-07-11T17:27:12.853Z,50
2017-07-11T17:28:12.534Z,45
2017-07-11T17:29:12.837Z,45
2017-07-11T17:30:12.867Z,45
2017-07-11T17:31:12.822Z,45
2017-07-11T17:32:12.892Z,40
2017-07-11T17:33:11.864Z,40
2017-07-11T17:34:12.791Z,40
2017-07-11T17:35:12.793Z,40
2017-07-11T17:36:12.448Z,40
2017-07-11T17:37:12.752Z,40
2017-07-11T17:38:12.436Z,35
2017-07-11T17:39:12.724Z,35
2017-07-11T17:40:12.391Z,35
2017-07-11T17:41:12.443Z,35
2017-07-11T17:42:12.709Z,35
2017-07-11T17:43:12.403Z,35
2017-07-11T17:44:12.657Z,35
2017-07-11T17:45:12.337Z,35
2017-07-11T17:46:12.646Z,35
2017-07-11T17:47:12.664Z,35
2017-07-11T17:48:12.396Z,35
2017-07-11T17:49:12.602Z,35
2017-07-11T17:50:12.624Z,35
2017-07-11T17:51:12.554Z,35
2017-07-11T17:52:12.735Z,35
2017-07-11T17:53:12.266Z,35
2017-07-11T17:54:11.959Z,35
2017-07-11T17:55:12.684Z,35
2017-07-11T17:56:12.727Z,35
2017-07-11T17:57:12.512Z,35
2017-07-11T17:58:11.868Z,35
2017-07-11T17:59:12.575Z,35
2017-07-11T18:00:12.496Z,35
2017-07-11T18:01:12.496Z,30
2017-07-11T18:02:12.474Z,30
2017-07-11T18:03:12.436Z,30
2017-07-11T18:04:12.424Z,30
2017-07-11T18:05:12.123Z,30
2017-07-11T18:06:12.401Z,30
2017-07-11T18:07:11.768Z,30
2017-07-11T18:08:12.453Z,25
2017-07-11T18:09:12.056Z,25
2017-07-11T18:10:12.404Z,25
2017-07-11T18:11:12.046Z,25
2017-07-11T18:12:12.320Z,25
2017-07-11T18:13:12.362Z,25
2017-07-11T18:14:12.315Z,25
2017-07-11T18:15:12.337Z,25
2017-07-11T18:16:12.296Z,25
2017-07-11T18:17:12.306Z,25
2017-07-11T18:18:12.269Z,25
2017-07-11T18:19:11.943Z,25
2017-07-11T18:20:12.233Z,25
2017-07-11T18:21:11.941Z,20
2017-07-11T18:22:12.295Z,20
2017-07-11T18:23:12.196Z,20
2017-07-11T18:24:12.201Z,20
2017-07-11T18:25:12.202Z,20
2017-07-11T18:26:11.885Z,20
2017-07-11T18:27:11.847Z,20
2017-07-11T18:28:11.817Z,20
2017-07-11T18:29:12.146Z,20
2017-07-11T18:30:12.126Z,20
2017-07-11T18:31:12.101Z,20
2017-07-11T18:32:12.088Z,20
2017-07-11T18:33:12.109Z,20
2017-07-11T18:34:12.058Z,20
2017-07-11T18:35:12.058Z,20
2017-07-11T18:36:11.427Z,20
2017-07-11T18:37:11.736Z,20
2017-07-11T18:38:11.719Z,20
2017-07-11T18:39:11.059Z,20
2017-07-11T18:40:11.756Z,20
2017-07-11T18:41:11.979Z,20
2017-07-11T18:42:12.009Z,20
2017-07-11T18:43:11.980Z,20
2017-07-11T18:44:11.960Z,20
2017-07-11T18:45:11.308Z,20
2017-07-11T18:46:11.976Z,20
2017-07-11T18:47:11.571Z,20
2017-07-11T18:48:11.926Z,15
2017-07-11T18:49:11.889Z,15
2017-07-11T18:50:11.878Z,15
2017-07-11T18:51:11.849Z,15
2017-07-11T18:52:11.859Z,15
2017-07-11T18:53:11.842Z,15
2017-07-11T18:54:11.836Z,15
2017-07-11T18:55:11.845Z,15
2017-07-11T18:56:11.536Z,15
2017-07-11T18:57:11.526Z,15
2017-07-11T18:58:11.482Z,15
2017-07-11T18:59:11.730Z,15
2017-07-11T19:00:11.556Z,15
2017-07-11T19:01:11.766Z,15
2017-07-11T19:02:11.747Z,10
2017-07-11T19:03:11.728Z,10
2017-07-11T19:04:11.883Z,10
2017-07-11T19:05:11.770Z,10
2017-07-11T19:06:11.709Z,10
2017-07-11T19:07:11.754Z,10
2017-07-11T19:08:11.728Z,10
2017-07-11T19:09:11.656Z,10
2017-07-11T19:10:11.671Z,10
2017-07-11T19:11:11.643Z,10
2017-07-11T19:12:11.673Z,5
2017-07-11T19:13:11.584Z,5
2017-07-11T19:14:11.588Z,5
2017-07-11T19:15:11.607Z,5
2017-07-11T19:16:11.588Z,5
2017-07-11T19:17:11.214Z,5
2017-07-11T19:18:11.636Z,5
2017-07-11T19:19:11.237Z,5
2017-07-11T19:20:11.583Z,5
2017-07-11T19:21:11.208Z,5
2017-07-11T19:22:10.899Z,0
2017-07-11T19:23:11.151Z,0
2017-07-11T19:24:11.467Z,0
2017-07-11T19:25:11.457Z,0
2017-07-11T19:26:11.148Z,0
2017-07-11T19:27:11.388Z,0
2017-07-11T19:28:11.431Z,0
2017-07-11T19:29:11.387Z,0
2017-07-11T19:30:11.371Z,0
2017-07-11T19:31:11.412Z,0
2017-07-11T19:32:11.344Z,0
2017-07-11T19:33:11.027Z,0
2017-07-11T19:34:11.027Z,0
2017-07-11T19:35:11.005Z,0
2017-07-11T19:36:11.262Z,0
2017-07-11T19:37:11.298Z,0
2017-07-11T19:38:11.279Z,0
2017-07-11T19:39:11.277Z,0
2017-07-11T19:40:11.249Z,0
2017-07-11T19:41:11.266Z,0
2017-07-11T19:42:11.258Z,0
2017-07-11T19:43:11.254Z,0
2017-07-11T19:44:10.880Z,0
2017-07-11T19:45:11.188Z,0
2017-07-11T19:46:11.250Z,0
2017-07-11T19:47:10.827Z,0
2017-07-11T19:48:11.168Z,0
2017-07-11T19:49:11.157Z,0
2017-07-11T19:50:10.806Z,0
2017-07-11T19:51:11.108Z,0
2017-07-11T19:52:10.758Z,0
2017-07-11T19:53:11.052Z,0
2017-07-11T19:54:10.754Z,0
2017-07-11T19:55:11.046Z,0
2017-07-11T19:56:11.111Z,0
2017-07-11T19:57:10.694Z,0
2017-07-11T19:58:10.740Z,0
2017-07-11T19:59:10.999Z,0
2017-07-11T20:00:10.324Z,0
2017-07-11T20:01:10.955Z,0
2017-07-11T20:02:10.619Z,0
2017-07-11T20:03:10.316Z,0
2017-07-11T20:04:10.594Z,0
2017-07-11T20:05:10.911Z,0
2017-07-11T20:06:10.877Z,0
2017-07-11T20:07:10.906Z,0
2017-07-11T20:08:10.851Z,0
2017-07-11T20:09:10.543Z,0
2017-07-11T20:10:10.217Z,0
2017-07-11T20:11:10.187Z,0
2017-07-11T20:12:10.186Z,0
2017-07-11T20:13:10.797Z,0
2017-07-11T20:14:10.465Z,0
2017-07-11T20:15:10.503Z,0
2017-07-11T20:16:10.603Z,0
2017-07-11T20:17:10.398Z,0
2017-07-11T20:18:10.754Z,0
2017-07-11T20:19:10.700Z,0
2017-07-11T20:20:10.721Z,0
2017-07-11T20:21:10.815Z,0
2017-07-11T20:22:10.767Z,0
2017-07-11T20:23:10.669Z,0
2017-07-11T20:24:10.443Z,0
2017-07-11T20:25:10.011Z,0
2017-07-11T20:26:10.308Z,0
2017-07-11T20:27:10.633Z,0
2017-07-11T20:28:10.665Z,0
2017-07-11T20:29:10.254Z,0
2017-07-11T20:30:10.254Z,0
2017-07-11T20:31:10.235Z,0
2017-07-11T20:32:09.582Z,0
2017-07-11T20:33:10.589Z,0
2017-07-11T20:34:10.221Z,0
2017-07-11T20:35:10.295Z,0
2017-07-11T20:36:10.517Z,0
2017-07-11T20:37:10.167Z,0
2017-07-11T20:38:09.834Z,0
2017-07-11T20:39:10.465Z,0
2017-07-11T20:40:10.425Z,0
2017-07-11T20:41:10.096Z,0
2017-07-11T20:42:10.381Z,0
2017-07-11T20:43:10.157Z,0
2017-07-11T20:44:10.034Z,0
2017-07-11T20:45:10.362Z,0
2017-07-11T20:46:10.341Z,0
2017-07-11T20:47:10.010Z,0
2017-07-11T20:48:09.990Z,0
2017-07-11T20:49:09.661Z,0
2017-07-11T20:50:09.957Z,0
2017-07-11T20:51:09.322Z,0
2017-07-11T20:52:10.277Z,0
2017-07-11T20:53:09.905Z,0
2017-07-11T20:54:10.219Z,0
2017-07-11T20:55:09.592Z,0
2017-07-11T20:56:09.901Z,0
2017-07-11T20:57:09.582Z,0
2017-07-11T20:58:10.142Z,0
2017-07-11T20:59:10.192Z,0
2017-07-11T21:00:10.209Z,0
2017-07-11T21:01:10.122Z,0
2017-07-11T21:02:09.812Z,0
2017-07-11T21:03:10.142Z,0
2017-07-11T21:04:09.531Z,0
2017-07-11T21:05:10.059Z,0
2017-07-11T21:06:09.730Z,0
2017-07-11T21:07:09.089Z,0
2017-07-11T21:08:10.017Z,0
2017-07-11T21:09:09.712Z,0
2017-07-11T21:10:10.018Z,0
2017-07-11T21:11:10.004Z,0
2017-07-11T21:12:09.969Z,0
2017-07-11T21:13:09.668Z,0
2017-07-11T21:14:09.920Z,0
2017-07-11T21:15:09.920Z,0
2017-07-11T21:16:09.604Z,0
2017-07-11T21:17:09.269Z,0
2017-07-11T21:18:09.610Z,0
2017-07-11T21:19:09.244Z,0
2017-07-11T21:20:09.561Z,0
2017-07-11T21:21:08.909Z,0
2017-07-11T21:22:09.501Z,0
2017-07-11T21:23:09.180Z,0
2017-07-11T21:24:09.199Z,0
2017-07-11T21:25:09.176Z,0
2017-07-11T21:26:09.779Z,0
2017-07-11T21:27:09.485Z,0
2017-07-11T21:28:09.754Z,0
2017-07-11T21:29:09.428Z,0
2017-07-11T21:30:08.770Z,0
2017-07-11T21:31:09.692Z,0
2017-07-11T21:32:09.693Z,0
2017-07-11T21:33:09.670Z,0
2017-07-11T21:34:09.349Z,0
2017-07-11T21:35:09.654Z,0
2017-07-11T21:36:09.647Z,0
2017-07-11T21:37:09.629Z,0
2017-07-11T21:38:09.311Z,0
2017-07-11T21:39:09.561Z,0
2017-07-11T21:40:09.260Z,0
2017-07-11T21:41:08.929Z,0
2017-07-11T21:42:08.931Z,0
2017-07-11T21:43:09.542Z,0
2017-07-11T21:44:09.505Z,0
2017-07-11T21:45:09.251Z,0
2017-07-11T21:46:09.193Z,0
2017-07-11T21:47:09.162Z,0
2017-07-11T21:48:09.151Z,0
2017-07-11T21:49:09.189Z,0
2017-07-11T21:50:09.158Z,0
2017-07-11T21:51:09.120Z,0
2017-07-11T21:52:09.478Z,0
2017-07-11T21:53:09.379Z,0
2017-07-11T21:54:09.399Z,0
2017-07-11T21:55:09.357Z,0
2017-07-11T21:56:09.060Z,0
2017-07-11T21:57:08.702Z,0
2017-07-11T21:58:09.001Z,0
2017-07-11T21:59:08.668Z,0
2017-07-11T22:00:08.990Z,0
2017-07-11T22:01:08.982Z,0
2017-07-11T22:02:09.052Z,0
2017-07-11T22:03:08.922Z,0
2017-07-11T22:04:09.254Z,0
2017-07-11T22:05:08.648Z,0
2017-07-11T22:06:08.897Z,0
2017-07-11T22:07:08.929Z,0
2017-07-11T22:08:09.299Z,0
2017-07-11T22:09:09.161Z,0
2017-07-11T22:10:09.163Z,0
2017-07-11T22:11:08.820Z,0
2017-07-11T22:12:08.809Z,0
2017-07-11T22:13:09.120Z,0
2017-07-11T22:14:08.444Z,0
2017-07-11T22:15:08.461Z,0
2017-07-11T22:16:09.142Z,0
2017-07-11T22:17:08.762Z,0
2017-07-11T22:18:08.747Z,0
2017-07-11T22:19:08.381Z,0
2017-07-11T22:20:08.042Z,0
2017-07-11T22:21:08.341Z,0
2017-07-11T22:22:08.365Z,0
2017-07-11T22:23:08.938Z,0
2017-07-11T22:24:08.969Z,0
2017-07-11T22:25:08.632Z,0
2017-07-11T22:26:08.602Z,0
2017-07-11T22:27:08.996Z,0
2017-07-11T22:28:08.241Z,0
2017-07-11T22:29:08.561Z,0
2017-07-11T22:30:08.529Z,0
2017-07-11T22:31:08.198Z,0
2017-07-11T22:32:08.494Z,0
2017-07-11T22:33:08.492Z,0
2017-07-11T22:34:08.481Z,0
2017-07-11T22:35:08.121Z,0
2017-07-11T22:36:08.746Z,0
2017-07-11T22:37:08.424Z,0
2017-07-11T22:38:08.402Z,0
2017-07-11T22:39:08.378Z,0
2017-07-11T22:40:08.442Z,0
2017-07-11T22:41:08.680Z,0
2017-07-11T22:42:08.047Z,0
2017-07-11T22:43:08.033Z,0
2017-07-11T22:44:08.012Z,0
2017-07-11T22:45:07.669Z,0
2017-07-11T22:46:08.291Z,0
2017-07-11T22:47:07.986Z,0
2017-07-11T22:48:08.592Z,0
2017-07-11T22:49:08.250Z,0
2017-07-11T22:50:08.229Z,0
2017-07-11T22:51:08.278Z,0
2017-07-11T22:52:08.535Z,0
2017-07-11T22:53:07.871Z,0
2017-07-11T22:54:08.481Z,0
2017-07-11T22:55:08.502Z,0
2017-07-11T22:56:07.534Z,0
2017-07-11T22:57:07.848Z,0
2017-07-11T22:58:08.441Z,0
2017-07-11T22:59:07.777Z,0
2017-07-11T23:00:08.090Z,0
2017-07-11T23:01:07.868Z,0
2017-07-11T23:02:07.451Z,0
2017-07-11T23:03:07.737Z,0
2017-07-11T23:04:08.012Z,0
2017-07-11T23:05:08.316Z,0
2017-07-11T23:06:07.981Z,0
2017-07-11T23:07:07.992Z,0
2017-07-11T23:08:08.269Z,0
2017-07-11T23:09:07.630Z,0
2017-07-11T23:10:07.620Z,0
2017-07-11T23:11:07.910Z,0
2017-07-11T23:12:08.226Z,0
2017-07-11T23:13:07.263Z,0
2017-07-11T23:14:08.179Z,0
2017-07-11T23:15:07.560Z,0
2017-07-11T23:16:08.152Z,0
2017-07-11T23:17:07.508Z,0
2017-07-11T23:18:07.501Z,0
2017-07-11T23:19:08.130Z,0
2017-07-11T23:20:07.444Z,0
2017-07-11T23:21:08.092Z,0
2017-07-11T23:22:07.849Z,0
2017-07-11T23:23:07.719Z,0
2017-07-11T23:24:08.039Z,0
2017-07-11T23:25:07.441Z,0
2017-07-11T23:26:07.390Z,0
2017-07-11T23:27:07.035Z,0
2017-07-11T23:28:07.641Z,0
2017-07-11T23:29:07.343Z,0
2017-07-11T23:30:07.310Z,0
2017-07-11T23:31:07.318Z,0
2017-07-11T23:32:07.611Z,0
2017-07-11T23:33:07.269Z,0
2017-07-11T23:34:07.555Z,0
2017-07-11T23:35:07.550Z,0
2017-07-11T23:36:07.599Z,0
2017-07-11T23:37:07.538Z,0
2017-07-11T23:38:07.841Z,0
2017-07-11T23:39:07.619Z,0
2017-07-11T23:40:07.172Z,0
2017-07-11T23:41:07.246Z,0
2017-07-11T23:42:07.129Z,0
2017-07-11T23:43:07.275Z,0
2017-07-11T23:44:07.169Z,0
2017-07-11T23:45:07.412Z,0
2017-07-11T23:46:07.411Z,0
2017-07-11T23:47:07.390Z,0
2017-07-11T23:48:07.418Z,0
2017-07-11T23:49:07.104Z,0
2017-07-11T23:50:07.015Z,0
2017-07-11T23:51:07.017Z,0
2017-07-11T23:52:07.044Z,0
2017-07-11T23:53:06.660Z,0
2017-07-11T23:54:07.338Z,0
2017-07-11T23:55:06.641Z,0
2017-07-11T23:56:07.016Z,0
2017-07-11T23:57:07.218Z,0
2017-07-11T23:58:07.241Z,0
2017-07-11T23:59:06.587Z,0
